Ana Sayfa
METAR-TAF:

METAR-TAF

Havaalanları :

Köstence, Romanya

Enlem: 44-20N, Boylam: 028-26E, yükseklik: 97 m

Güncel hava durumu gözlemi

Rapor saat 08:30 UTC de 10 dakika önce yapıldı.
Rüzgar kuzeydan 10 kt, kuzey/kuzeybatı ve kuzeydoğu arasında değişken
Sıcaklık 16°C
Nem 51%
Basınç 1023 hPa
Görüş mesafesi 10 km veya daha fazla
1500 m altında bulut yok ve kümülonimbus yok

METAR: LRCK 220830Z 36010KT 340V040 CAVOK 16/06 Q1023 NOSIG

Saat: 11:40 (08:40 UTC)

Tahmin

Rapor saat 05:00 UTC de 3 saat ve 40 dakika önce yapıldı.
Ayın 22'si saat 06 UTC'den ayın 23'si saat 06 UTC'ye kadar geçerli Tahmin
Rüzgar kuzeydan 10 kt
Görüş mesafesi 10 km veya daha fazla
1500 m altında bulut yok ve kümülonimbus yok
Dönüşüyor
ayın 22'si saat 12 UTC'den ayın 22'si saat 14 UTC'ye kadar
Rüzgar değişken yönden 4 kt

TAF: LRCK 220500Z 2206/2306 35010KT CAVOK BECMG 2212/2214 VRB04KT

4.000'den fazla havaalanı için hava durumu gözlemleri ve tahminleri (METAR ve TAF raporları).

Kullanılabilir istasyonlar harita üzerinde sarı ve kırmızı noktalarla gösterilir.

İstasyonun adını görmek için fareyi noktanın üzerinde gezdirin.

Sonrasında hava gözlem ve tahminlerini görmek için tıklayın.

Haritayı değiştirmek için: yaklaştırmak için siyah artı işaretli yeşil düğmeye ve uzaklaştırmak için de eksi işaretli düğmeye hızla tıklayın; bitişik haritalar için yeşil okları kullanın.


METAR-TAF: